createdAt,value
2022-07-27T00:01:35.000Z,290.02
2022-07-27T00:03:01.000Z,290.15
2022-07-27T00:05:07.000Z,290.34
2022-07-27T00:06:34.000Z,290.27
2022-07-27T00:08:40.000Z,290.27
2022-07-27T00:10:06.000Z,290.27
2022-07-27T00:12:13.000Z,290.15
2022-07-27T00:13:39.000Z,290.15
2022-07-27T00:15:45.000Z,289.9
2022-07-27T00:17:12.000Z,289.9
2022-07-27T00:19:18.000Z,289.77
2022-07-27T00:20:45.000Z,289.96
2022-07-27T00:22:51.000Z,290.02
2022-07-27T00:24:19.000Z,289.9
2022-07-27T00:26:25.000Z,290.09
2022-07-27T00:29:16.000Z,290.09
2022-07-27T00:30:42.000Z,290.15
2022-07-27T00:32:49.000Z,290.09
2022-07-27T00:34:15.000Z,290.09
2022-07-27T00:36:21.000Z,289.96
2022-07-27T00:37:48.000Z,289.96
2022-07-27T00:39:54.000Z,289.96
2022-07-27T00:41:20.000Z,289.96
2022-07-27T00:43:26.000Z,289.9
2022-07-27T00:44:53.000Z,289.77
2022-07-27T00:46:59.000Z,289.71
2022-07-27T00:48:26.000Z,289.65
2022-07-27T00:50:32.000Z,289.65
2022-07-27T00:51:58.000Z,290.02
2022-07-27T00:54:05.000Z,289.9
2022-07-27T00:55:31.000Z,289.96
2022-07-27T00:57:37.000Z,290.15
2022-07-27T00:59:23.000Z,290.02
2022-07-27T01:01:30.000Z,290.21
2022-07-27T01:02:57.000Z,290.15
2022-07-27T01:05:06.000Z,290.15
2022-07-27T01:07:59.000Z,289.9
2022-07-27T01:09:25.000Z,289.77
2022-07-27T01:11:32.000Z,289.77
2022-07-27T01:12:58.000Z,289.84
2022-07-27T01:15:04.000Z,289.9
2022-07-27T01:16:31.000Z,289.77
2022-07-27T01:18:37.000Z,289.9
2022-07-27T01:20:03.000Z,289.96
2022-07-27T01:22:09.000Z,289.9
2022-07-27T01:23:36.000Z,289.77
2022-07-27T01:25:42.000Z,289.65
2022-07-27T01:27:09.000Z,289.71
2022-07-27T01:29:15.000Z,289.65
2022-07-27T01:30:41.000Z,289.65
2022-07-27T01:32:48.000Z,289.65
2022-07-27T01:34:14.000Z,289.71
2022-07-27T01:36:20.000Z,289.59
2022-07-27T01:37:47.000Z,289.65
2022-07-27T01:39:53.000Z,289.77
2022-07-27T01:41:20.000Z,289.59
2022-07-27T01:43:26.000Z,289.59
2022-07-27T01:46:17.000Z,289.71
2022-07-27T01:47:43.000Z,289.77
2022-07-27T01:49:50.000Z,289.59
2022-07-27T01:51:16.000Z,289.46
2022-07-27T01:53:22.000Z,289.65
2022-07-27T01:54:49.000Z,289.71
2022-07-27T01:56:55.000Z,289.71
2022-07-27T01:58:21.000Z,289.65
2022-07-27T02:00:28.000Z,289.77
2022-07-27T02:01:54.000Z,289.77
2022-07-27T02:04:00.000Z,289.59
2022-07-27T02:05:27.000Z,289.65
2022-07-27T02:07:33.000Z,289.52
2022-07-27T02:09:00.000Z,289.65
2022-07-27T02:11:06.000Z,289.65
2022-07-27T02:12:32.000Z,289.46
2022-07-27T02:14:39.000Z,289.4
2022-07-27T02:16:05.000Z,289.4
2022-07-27T02:18:21.000Z,289.46
2022-07-27T02:20:00.000Z,289.59
2022-07-27T02:22:06.000Z,289.34
2022-07-27T02:24:58.000Z,289.52
2022-07-27T02:26:24.000Z,289.59
2022-07-27T02:28:30.000Z,289.71
2022-07-27T02:29:57.000Z,289.4
2022-07-27T02:32:03.000Z,289.46
2022-07-27T02:33:29.000Z,289.34
2022-07-27T02:35:35.000Z,289.27
2022-07-27T02:37:02.000Z,289.34
2022-07-27T02:39:08.000Z,289.21
2022-07-27T02:40:35.000Z,289.27
2022-07-27T02:42:41.000Z,289.34
2022-07-27T02:44:08.000Z,289.4
2022-07-27T02:46:14.000Z,289.27
2022-07-27T02:47:41.000Z,289.27
2022-07-27T02:49:47.000Z,289.15
2022-07-27T02:51:13.000Z,289.02
2022-07-27T02:53:19.000Z,289.02
2022-07-27T02:54:46.000Z,289.09
2022-07-27T02:56:52.000Z,289.15
2022-07-27T02:58:19.000Z,289.21
2022-07-27T03:00:25.000Z,289.09
2022-07-27T03:03:16.000Z,288.96
2022-07-27T03:04:43.000Z,288.9
2022-07-27T03:06:49.000Z,288.84
2022-07-27T03:08:15.000Z,288.9
2022-07-27T03:10:21.000Z,288.77
2022-07-27T03:11:48.000Z,288.77
2022-07-27T03:13:54.000Z,288.77
2022-07-27T03:15:21.000Z,288.77
2022-07-27T03:17:30.000Z,288.84
2022-07-27T03:18:56.000Z,288.9
2022-07-27T03:21:02.000Z,288.84
2022-07-27T03:22:31.000Z,288.96
2022-07-27T03:24:37.000Z,288.9
2022-07-27T03:26:03.000Z,288.77
2022-07-27T03:28:09.000Z,288.65
2022-07-27T03:29:36.000Z,288.71
2022-07-27T03:31:42.000Z,288.9
2022-07-27T03:33:08.000Z,288.84
2022-07-27T03:35:15.000Z,288.65
2022-07-27T03:36:44.000Z,288.71
2022-07-27T03:38:50.000Z,288.52
2022-07-27T03:41:41.000Z,288.46
2022-07-27T03:43:08.000Z,288.4
2022-07-27T03:45:14.000Z,288.27
2022-07-27T03:46:41.000Z,288.15
2022-07-27T03:48:47.000Z,288.09
2022-07-27T03:50:13.000Z,288.21
2022-07-27T03:52:19.000Z,288.15
2022-07-27T03:53:46.000Z,288.21
2022-07-27T03:55:52.000Z,288.27
2022-07-27T03:57:19.000Z,288.21
2022-07-27T03:59:26.000Z,288.09
2022-07-27T04:00:52.000Z,288.15
2022-07-27T04:02:59.000Z,288.02
2022-07-27T04:04:25.000Z,288.09
2022-07-27T04:06:31.000Z,287.96
2022-07-27T04:07:58.000Z,287.9
2022-07-27T04:10:04.000Z,288.02
2022-07-27T04:11:32.000Z,287.96
2022-07-27T04:13:38.000Z,288.09
2022-07-27T04:15:05.000Z,288.09
2022-07-27T04:17:11.000Z,288.15
2022-07-27T04:20:44.000Z,288.27
2022-07-27T04:22:10.000Z,288.27
2022-07-27T04:24:16.000Z,288.27
2022-07-27T04:25:43.000Z,288.27
2022-07-27T04:27:49.000Z,288.21
2022-07-27T04:29:15.000Z,288.21
2022-07-27T04:31:25.000Z,288.09
2022-07-27T04:32:51.000Z,288.09
2022-07-27T04:34:57.000Z,288.02
2022-07-27T04:36:24.000Z,288.15
2022-07-27T04:38:30.000Z,288.21
2022-07-27T04:39:56.000Z,288.21
2022-07-27T04:42:03.000Z,288.21
2022-07-27T04:43:29.000Z,288.4
2022-07-27T04:45:35.000Z,288.52
2022-07-27T04:47:02.000Z,288.59
2022-07-27T04:49:08.000Z,288.65
2022-07-27T04:50:35.000Z,288.59
2022-07-27T04:52:41.000Z,288.52
2022-07-27T04:54:08.000Z,288.59
2022-07-27T04:56:14.000Z,288.84
2022-07-27T04:59:07.000Z,288.71
2022-07-27T05:00:34.000Z,288.84
2022-07-27T05:02:41.000Z,288.84
2022-07-27T05:04:07.000Z,288.9
2022-07-27T05:06:13.000Z,288.96
2022-07-27T05:07:40.000Z,288.96
2022-07-27T05:09:46.000Z,288.77
2022-07-27T05:11:12.000Z,288.84
2022-07-27T05:13:19.000Z,288.84
2022-07-27T05:14:45.000Z,288.84
2022-07-27T05:16:51.000Z,288.9
2022-07-27T05:18:18.000Z,288.84
2022-07-27T05:20:24.000Z,288.9
2022-07-27T05:21:50.000Z,288.84
2022-07-27T05:23:57.000Z,288.96
2022-07-27T05:25:23.000Z,288.96
2022-07-27T05:27:29.000Z,289.02
2022-07-27T05:28:56.000Z,288.96
2022-07-27T05:31:02.000Z,289.09
2022-07-27T05:32:28.000Z,289.15
2022-07-27T05:34:35.000Z,289.34
2022-07-27T05:37:26.000Z,289.21
2022-07-27T05:38:52.000Z,289.27
2022-07-27T05:40:59.000Z,289.21
2022-07-27T05:42:25.000Z,289.15
2022-07-27T05:44:31.000Z,289.34
2022-07-27T05:45:58.000Z,289.46
2022-07-27T05:48:04.000Z,289.71
2022-07-27T05:49:31.000Z,289.84
2022-07-27T05:51:37.000Z,289.71
2022-07-27T05:53:03.000Z,289.71
2022-07-27T05:55:09.000Z,289.71
2022-07-27T05:56:36.000Z,289.77
2022-07-27T05:58:42.000Z,289.84
2022-07-27T06:00:08.000Z,289.9
2022-07-27T06:02:14.000Z,289.96
2022-07-27T06:03:41.000Z,290.02
2022-07-27T06:05:47.000Z,289.84
2022-07-27T06:07:14.000Z,289.77
2022-07-27T06:09:20.000Z,289.96
2022-07-27T06:10:46.000Z,290.15
2022-07-27T06:12:53.000Z,290.21
2022-07-27T06:15:44.000Z,290.21
2022-07-27T06:17:10.000Z,290.02
2022-07-27T06:19:16.000Z,290.21
2022-07-27T06:20:43.000Z,290.27
2022-07-27T06:22:49.000Z,290.4
2022-07-27T06:24:16.000Z,290.4
2022-07-27T06:26:22.000Z,290.52
2022-07-27T06:27:48.000Z,290.52
2022-07-27T06:29:55.000Z,290.65
2022-07-27T06:31:21.000Z,290.71
2022-07-27T06:33:27.000Z,290.71
2022-07-27T06:34:55.000Z,290.77
2022-07-27T06:37:02.000Z,290.9
2022-07-27T06:38:29.000Z,290.9
2022-07-27T06:40:35.000Z,290.84
2022-07-27T06:42:02.000Z,290.71
2022-07-27T06:44:08.000Z,290.9
2022-07-27T06:45:34.000Z,290.84
2022-07-27T06:47:41.000Z,290.77
2022-07-27T06:49:14.000Z,290.96
2022-07-27T06:51:21.000Z,291.21
2022-07-27T06:54:13.000Z,291.02
2022-07-27T06:55:39.000Z,291.21
2022-07-27T06:57:45.000Z,291.27
2022-07-27T06:59:12.000Z,291.46
2022-07-27T07:01:19.000Z,291.71
2022-07-27T07:02:45.000Z,291.71
2022-07-27T07:04:51.000Z,291.77
2022-07-27T07:06:18.000Z,291.9
2022-07-27T07:08:24.000Z,292.02
2022-07-27T07:09:51.000Z,292.09
2022-07-27T07:11:57.000Z,291.84
2022-07-27T07:13:24.000Z,291.52
2022-07-27T07:15:30.000Z,291.59
2022-07-27T07:16:56.000Z,291.71
2022-07-27T07:19:02.000Z,291.65
2022-07-27T07:20:29.000Z,291.71
2022-07-27T07:22:35.000Z,291.77
2022-07-27T07:24:02.000Z,291.77
2022-07-27T07:26:08.000Z,291.71
2022-07-27T07:27:35.000Z,291.77
2022-07-27T07:29:41.000Z,291.71
2022-07-27T07:32:32.000Z,291.77
2022-07-27T07:33:59.000Z,291.65
2022-07-27T07:36:05.000Z,291.65
2022-07-27T07:37:39.000Z,291.65
2022-07-27T07:41:18.000Z,291.59
2022-07-27T07:41:51.000Z,291.65
2022-07-27T07:43:18.000Z,291.59
2022-07-27T07:45:26.000Z,291.59
2022-07-27T07:46:52.000Z,291.65
2022-07-27T07:48:58.000Z,291.52
2022-07-27T07:50:25.000Z,291.4
2022-07-27T07:52:31.000Z,291.52
2022-07-27T07:53:58.000Z,291.46
2022-07-27T07:56:04.000Z,291.46
2022-07-27T07:57:31.000Z,291.34
2022-07-27T07:59:37.000Z,290.96
2022-07-27T08:01:03.000Z,290.96
2022-07-27T08:03:09.000Z,290.9
2022-07-27T08:04:36.000Z,291.09
2022-07-27T08:06:42.000Z,291.15
2022-07-27T08:08:09.000Z,291.15
2022-07-27T08:10:15.000Z,291.27
2022-07-27T08:13:01.000Z,291.46
2022-07-27T08:14:29.000Z,291.4
2022-07-27T08:16:35.000Z,291.15
2022-07-27T08:18:02.000Z,291.09
2022-07-27T08:20:08.000Z,291.21
2022-07-27T08:21:34.000Z,291.21
2022-07-27T08:23:40.000Z,291.4
2022-07-27T08:25:07.000Z,291.4
2022-07-27T08:27:13.000Z,291.52
2022-07-27T08:28:40.000Z,291.52
2022-07-27T08:30:46.000Z,291.77
2022-07-27T08:32:13.000Z,291.77
2022-07-27T08:34:20.000Z,291.9
2022-07-27T08:35:46.000Z,291.84
2022-07-27T08:37:52.000Z,291.77
2022-07-27T08:39:19.000Z,291.9
2022-07-27T08:42:32.000Z,291.9
2022-07-27T08:43:58.000Z,291.84
2022-07-27T08:46:05.000Z,292.15
2022-07-27T08:47:31.000Z,292.27
2022-07-27T08:49:38.000Z,292.4
2022-07-27T08:52:33.000Z,292.84
2022-07-27T08:53:59.000Z,292.84
2022-07-27T08:56:05.000Z,292.9
2022-07-27T08:57:32.000Z,293.15
2022-07-27T08:59:38.000Z,293.02
2022-07-27T09:01:06.000Z,292.77
2022-07-27T09:03:12.000Z,292.71
2022-07-27T09:04:44.000Z,292.59
2022-07-27T09:06:51.000Z,292.65
2022-07-27T09:08:18.000Z,292.71
2022-07-27T09:10:25.000Z,292.65
2022-07-27T09:11:51.000Z,292.59
2022-07-27T09:13:57.000Z,292.59
2022-07-27T09:15:24.000Z,292.59
2022-07-27T09:17:38.000Z,292.59
2022-07-27T09:19:14.000Z,292.71
2022-07-27T09:21:20.000Z,292.59
2022-07-27T09:22:47.000Z,292.71
2022-07-27T09:24:53.000Z,292.4
2022-07-27T09:26:19.000Z,292.65
2022-07-27T09:28:37.000Z,292.77
2022-07-27T09:31:28.000Z,292.9
2022-07-27T09:32:55.000Z,292.96
2022-07-27T09:35:01.000Z,293.27
2022-07-27T09:36:27.000Z,293.27
2022-07-27T09:38:34.000Z,293.4
2022-07-27T09:40:00.000Z,293.46
2022-07-27T09:42:06.000Z,293.71
2022-07-27T09:46:20.000Z,293.34
2022-07-27T09:47:47.000Z,293.34
2022-07-27T09:49:53.000Z,293.27
2022-07-27T09:51:22.000Z,293.34
2022-07-27T09:54:02.000Z,293.46
2022-07-27T09:55:28.000Z,293.21
2022-07-27T09:57:34.000Z,293.27
2022-07-27T09:59:01.000Z,293.27
2022-07-27T10:01:07.000Z,293.27
2022-07-27T10:02:34.000Z,293.21
2022-07-27T10:04:40.000Z,293.4
2022-07-27T10:06:07.000Z,293.46
2022-07-27T10:08:13.000Z,293.52
2022-07-27T10:11:04.000Z,293.52
2022-07-27T10:12:31.000Z,293.84
2022-07-27T10:14:37.000Z,293.96
2022-07-27T10:16:04.000Z,294.21
2022-07-27T10:18:10.000Z,294.02
2022-07-27T10:19:37.000Z,293.9
2022-07-27T10:21:43.000Z,293.96
2022-07-27T10:23:09.000Z,294.02
2022-07-27T10:25:16.000Z,294.09
2022-07-27T10:26:42.000Z,294.02
2022-07-27T10:28:49.000Z,293.71
2022-07-27T10:30:15.000Z,293.59
2022-07-27T10:32:31.000Z,293.84
2022-07-27T10:33:58.000Z,293.77
2022-07-27T10:36:04.000Z,294.27
2022-07-27T10:37:30.000Z,293.9
2022-07-27T10:39:37.000Z,294.09
2022-07-27T10:41:03.000Z,294.52
2022-07-27T10:43:09.000Z,295.09
2022-07-27T10:44:36.000Z,295.09
2022-07-27T10:46:42.000Z,295.15
2022-07-27T10:49:34.000Z,295.09
2022-07-27T10:51:06.000Z,295.09
2022-07-27T10:53:12.000Z,294.9
2022-07-27T10:54:38.000Z,295.02
2022-07-27T10:56:45.000Z,295.34
2022-07-27T10:58:11.000Z,295.09
2022-07-27T11:00:17.000Z,295.21
2022-07-27T11:01:44.000Z,295.09
2022-07-27T11:03:51.000Z,295.27
2022-07-27T11:09:38.000Z,295.84
2022-07-27T11:12:09.000Z,295.46
2022-07-27T11:13:35.000Z,295.15
2022-07-27T11:15:43.000Z,295.71
2022-07-27T11:17:09.000Z,295.77
2022-07-27T11:20:00.000Z,295.65
2022-07-27T11:21:27.000Z,295.02
2022-07-27T11:23:33.000Z,295.4
2022-07-27T11:25:16.000Z,295.65
2022-07-27T11:27:22.000Z,295.84
2022-07-27T11:30:14.000Z,296.52
2022-07-27T11:31:41.000Z,296.71
2022-07-27T11:34:01.000Z,296.96
2022-07-27T11:35:27.000Z,296.9
2022-07-27T11:37:33.000Z,297.02
2022-07-27T11:39:07.000Z,296.96
2022-07-27T11:41:19.000Z,296.52
2022-07-27T11:43:29.000Z,295.96
2022-07-27T11:45:38.000Z,296.09
2022-07-27T11:47:04.000Z,296.02
2022-07-27T11:49:10.000Z,295.84
2022-07-27T11:50:37.000Z,295.77
2022-07-27T11:52:43.000Z,296.09
2022-07-27T11:54:10.000Z,296.21
2022-07-27T11:56:16.000Z,296.4
2022-07-27T11:57:42.000Z,296.59
2022-07-27T11:59:49.000Z,296.59
2022-07-27T12:01:15.000Z,296.46
2022-07-27T12:03:21.000Z,296.52
2022-07-27T12:05:10.000Z,296.27
2022-07-27T12:07:16.000Z,296.27
2022-07-27T12:10:08.000Z,295.84
2022-07-27T12:11:34.000Z,296.02
2022-07-27T12:13:40.000Z,296.46
2022-07-27T12:15:07.000Z,296.77
2022-07-27T12:17:49.000Z,296.71
2022-07-27T12:19:15.000Z,296.77
2022-07-27T12:21:21.000Z,296.46
2022-07-27T12:22:56.000Z,296.4
2022-07-27T12:25:02.000Z,296.4
2022-07-27T12:26:34.000Z,296.46
2022-07-27T12:28:40.000Z,296.21
2022-07-27T12:30:07.000Z,296.09
2022-07-27T12:32:13.000Z,295.77
2022-07-27T12:33:39.000Z,295.46
2022-07-27T12:35:46.000Z,295.46
2022-07-27T12:37:12.000Z,295.59
2022-07-27T12:39:18.000Z,295.71
2022-07-27T12:40:45.000Z,296.21
2022-07-27T12:42:51.000Z,296.09
2022-07-27T12:44:18.000Z,296.09
2022-07-27T12:46:24.000Z,296.21
2022-07-27T12:49:15.000Z,296.34
2022-07-27T12:50:43.000Z,296.09
2022-07-27T12:52:49.000Z,296.27
2022-07-27T12:54:16.000Z,296.09
2022-07-27T12:56:22.000Z,296.09
2022-07-27T12:57:52.000Z,295.96
2022-07-27T13:00:00.000Z,296.09
2022-07-27T13:01:28.000Z,296.21
2022-07-27T13:03:34.000Z,296.34
2022-07-27T13:05:01.000Z,296.02
2022-07-27T13:07:07.000Z,296.02
2022-07-27T13:08:34.000Z,296.21
2022-07-27T13:10:40.000Z,296.15
2022-07-27T13:12:06.000Z,296.46
2022-07-27T13:14:13.000Z,296.4
2022-07-27T13:15:39.000Z,295.84
2022-07-27T13:17:45.000Z,296.09
2022-07-27T13:19:12.000Z,296.02
2022-07-27T13:21:19.000Z,296.34
2022-07-27T13:22:45.000Z,296.46
2022-07-27T13:24:51.000Z,296.59
2022-07-27T13:27:43.000Z,296.4
2022-07-27T13:29:09.000Z,296.34
2022-07-27T13:31:16.000Z,296.27
2022-07-27T13:32:43.000Z,296.21
2022-07-27T13:34:49.000Z,296.15
2022-07-27T13:36:15.000Z,296.02
2022-07-27T13:38:22.000Z,296.27
2022-07-27T13:39:48.000Z,296.52
2022-07-27T13:41:54.000Z,296.09
2022-07-27T13:43:21.000Z,296.34
2022-07-27T13:45:27.000Z,296.71
2022-07-27T13:47:07.000Z,296.84
2022-07-27T13:49:14.000Z,296.46
2022-07-27T13:50:42.000Z,296.34
2022-07-27T13:52:48.000Z,296.27
2022-07-27T13:54:14.000Z,296.71
2022-07-27T13:56:21.000Z,296.9
2022-07-27T13:57:48.000Z,296.71
2022-07-27T13:59:54.000Z,296.34
2022-07-27T14:01:21.000Z,296.46
2022-07-27T14:03:27.000Z,296.84
2022-07-27T14:06:19.000Z,297.15
2022-07-27T14:07:47.000Z,296.77
2022-07-27T14:09:53.000Z,296.46
2022-07-27T14:11:20.000Z,296.27
2022-07-27T14:13:27.000Z,296.27
2022-07-27T14:14:53.000Z,296.65
2022-07-27T14:17:00.000Z,296.71
2022-07-27T14:18:29.000Z,297.02
2022-07-27T14:20:35.000Z,297.27
2022-07-27T14:22:02.000Z,296.71
2022-07-27T14:24:08.000Z,296.59
2022-07-27T14:25:34.000Z,296.71
2022-07-27T14:27:41.000Z,297.65
2022-07-27T14:29:07.000Z,297.52
2022-07-27T14:31:13.000Z,297.52
2022-07-27T14:32:40.000Z,297.09
2022-07-27T14:34:46.000Z,296.71
2022-07-27T14:36:13.000Z,297.02
2022-07-27T14:38:19.000Z,296.77
2022-07-27T14:39:52.000Z,297.4
2022-07-27T14:41:58.000Z,297.9
2022-07-27T14:44:50.000Z,298.21
2022-07-27T14:46:17.000Z,297.52
2022-07-27T14:48:23.000Z,297.84
2022-07-27T14:50:27.000Z,298.27
2022-07-27T14:52:33.000Z,298.34
2022-07-27T14:54:00.000Z,298.77
2022-07-27T14:56:06.000Z,298.84
2022-07-27T14:57:33.000Z,298.65
2022-07-27T14:59:39.000Z,298.96
2022-07-27T15:01:05.000Z,299.02
2022-07-27T15:03:12.000Z,299.21
2022-07-27T15:04:39.000Z,299.15
2022-07-27T15:06:45.000Z,299.09
2022-07-27T15:08:12.000Z,299.15
2022-07-27T15:10:18.000Z,299.09
2022-07-27T15:11:45.000Z,298.9
2022-07-27T15:13:51.000Z,299.15
2022-07-27T15:15:17.000Z,298.9
2022-07-27T15:17:24.000Z,299.09
2022-07-27T15:18:50.000Z,298.9
2022-07-27T15:20:57.000Z,299.27
2022-07-27T15:23:48.000Z,298.4
2022-07-27T15:25:14.000Z,297.96
2022-07-27T15:27:21.000Z,297.77
2022-07-27T15:28:47.000Z,297.77
2022-07-27T15:30:53.000Z,297.34
2022-07-27T15:32:20.000Z,297.4
2022-07-27T15:34:27.000Z,297.96
2022-07-27T15:35:53.000Z,298.21
2022-07-27T15:38:00.000Z,297.71
2022-07-27T15:39:26.000Z,297.4
2022-07-27T15:41:33.000Z,297.52
2022-07-27T15:42:59.000Z,297.46
2022-07-27T15:45:05.000Z,297.27
2022-07-27T15:46:32.000Z,297.4
2022-07-27T15:48:38.000Z,297.46
2022-07-27T15:50:05.000Z,297.4
2022-07-27T15:52:11.000Z,297.09
2022-07-27T15:53:37.000Z,296.84
2022-07-27T15:55:44.000Z,297.09
2022-07-27T15:57:10.000Z,296.9
2022-07-27T15:59:16.000Z,296.96
2022-07-27T16:02:08.000Z,297.46
2022-07-27T16:03:35.000Z,297.52
2022-07-27T16:05:42.000Z,297.34
2022-07-27T16:07:08.000Z,297.4
2022-07-27T16:09:14.000Z,297.27
2022-07-27T16:10:42.000Z,297.46
2022-07-27T16:12:48.000Z,297.65
2022-07-27T16:14:14.000Z,297.84
2022-07-27T16:16:21.000Z,297.52
2022-07-27T16:17:47.000Z,297.77
2022-07-27T16:19:53.000Z,297.96
2022-07-27T16:21:20.000Z,298.02
2022-07-27T16:23:26.000Z,297.84
2022-07-27T16:24:53.000Z,298.21
2022-07-27T16:26:59.000Z,298.02
2022-07-27T16:28:25.000Z,298.09
2022-07-27T16:30:31.000Z,298.02
2022-07-27T16:32:02.000Z,297.96
2022-07-27T16:34:09.000Z,297.77
2022-07-27T16:35:35.000Z,298.09
2022-07-27T16:37:41.000Z,297.71
2022-07-27T16:40:32.000Z,298.09
2022-07-27T16:41:59.000Z,298.15
2022-07-27T16:44:05.000Z,298.15
2022-07-27T16:45:31.000Z,297.96
2022-07-27T16:47:38.000Z,297.84
2022-07-27T16:49:04.000Z,297.96
2022-07-27T16:51:10.000Z,297.9
2022-07-27T16:52:37.000Z,297.59
2022-07-27T16:54:43.000Z,297.77
2022-07-27T16:56:10.000Z,297.65
2022-07-27T16:58:16.000Z,297.71
2022-07-27T16:59:42.000Z,297.9
2022-07-27T17:01:49.000Z,298.15
2022-07-27T17:03:15.000Z,297.77
2022-07-27T17:05:21.000Z,297.96
2022-07-27T17:06:48.000Z,297.9
2022-07-27T17:08:54.000Z,298.15
2022-07-27T17:10:21.000Z,297.96
2022-07-27T17:12:31.000Z,298.15
2022-07-27T17:14:03.000Z,297.9
2022-07-27T17:16:10.000Z,297.71
2022-07-27T17:19:02.000Z,297.77
2022-07-27T17:20:28.000Z,297.84
2022-07-27T17:22:39.000Z,297.65
2022-07-27T17:24:06.000Z,297.52
2022-07-27T17:26:12.000Z,297.46
2022-07-27T17:27:39.000Z,297.59
2022-07-27T17:29:45.000Z,297.52
2022-07-27T17:31:11.000Z,297.46
2022-07-27T17:33:18.000Z,297.4
2022-07-27T17:34:44.000Z,297.34
2022-07-27T17:36:50.000Z,297.02
2022-07-27T17:38:17.000Z,296.71
2022-07-27T17:40:23.000Z,296.59
2022-07-27T17:41:49.000Z,296.46
2022-07-27T17:43:56.000Z,296.46
2022-07-27T17:45:22.000Z,296.21
2022-07-27T17:47:28.000Z,296.46
2022-07-27T17:48:55.000Z,296.15
2022-07-27T17:51:01.000Z,296.27
2022-07-27T17:52:28.000Z,296.15
2022-07-27T17:54:39.000Z,296.02
2022-07-27T17:57:30.000Z,295.84
2022-07-27T17:58:56.000Z,295.84
2022-07-27T18:01:31.000Z,295.59
2022-07-27T18:03:12.000Z,295.52
2022-07-27T18:05:19.000Z,295.46
2022-07-27T18:06:45.000Z,295.34
2022-07-27T18:08:51.000Z,295.27
2022-07-27T18:10:18.000Z,295.21
2022-07-27T18:12:24.000Z,294.96
2022-07-27T18:13:50.000Z,294.84
2022-07-27T18:15:56.000Z,294.46
2022-07-27T18:17:24.000Z,294.59
2022-07-27T18:19:30.000Z,294.52
2022-07-27T18:20:56.000Z,294.46
2022-07-27T18:23:03.000Z,294.52
2022-07-27T18:24:29.000Z,294.46
2022-07-27T18:26:35.000Z,294.27
2022-07-27T18:28:03.000Z,294.09
2022-07-27T18:30:09.000Z,293.84
2022-07-27T18:31:35.000Z,294.02
2022-07-27T18:33:42.000Z,293.71
2022-07-27T18:36:33.000Z,293.65
2022-07-27T18:37:59.000Z,293.77
2022-07-27T18:40:06.000Z,293.59
2022-07-27T18:41:32.000Z,293.52
2022-07-27T18:43:38.000Z,293.21
2022-07-27T18:45:05.000Z,293.27
2022-07-27T18:47:11.000Z,293.02
2022-07-27T18:48:37.000Z,292.84
2022-07-27T18:50:44.000Z,292.4
2022-07-27T18:52:10.000Z,292.15
2022-07-27T18:54:16.000Z,291.96
2022-07-27T18:55:43.000Z,291.96
2022-07-27T18:57:49.000Z,291.96
2022-07-27T18:59:15.000Z,291.9
2022-07-27T19:01:22.000Z,291.84
2022-07-27T19:02:48.000Z,291.65
2022-07-27T19:04:58.000Z,291.59
2022-07-27T19:06:25.000Z,291.46
2022-07-27T19:08:32.000Z,291.21
2022-07-27T19:09:58.000Z,291.21
2022-07-27T19:12:04.000Z,291.21
2022-07-27T19:14:59.000Z,291.02
2022-07-27T19:16:25.000Z,291.02
2022-07-27T19:18:32.000Z,290.71
2022-07-27T19:19:58.000Z,290.71
2022-07-27T19:22:04.000Z,290.52
2022-07-27T19:23:31.000Z,290.46
2022-07-27T19:25:37.000Z,290.34
2022-07-27T19:27:03.000Z,290.09
2022-07-27T19:29:09.000Z,290.09
2022-07-27T19:30:37.000Z,290.09
2022-07-27T19:32:43.000Z,290.15
2022-07-27T19:34:09.000Z,290.15
2022-07-27T19:36:16.000Z,290.02
2022-07-27T19:37:42.000Z,290.09
2022-07-27T19:39:48.000Z,289.84
2022-07-27T19:41:30.000Z,289.84
2022-07-27T19:43:36.000Z,289.71
2022-07-27T19:45:02.000Z,289.65
2022-07-27T19:47:09.000Z,289.34
2022-07-27T19:48:35.000Z,289.27
2022-07-27T19:50:41.000Z,289.15
2022-07-27T19:53:32.000Z,288.9
2022-07-27T19:54:59.000Z,288.77
2022-07-27T19:57:05.000Z,288.59
2022-07-27T19:58:32.000Z,288.34
2022-07-27T20:00:38.000Z,288.27
2022-07-27T20:02:04.000Z,288.27
2022-07-27T20:04:11.000Z,288.09
2022-07-27T20:05:37.000Z,288.21
2022-07-27T20:07:43.000Z,288.02
2022-07-27T20:09:10.000Z,288.09
2022-07-27T20:11:16.000Z,288.15
2022-07-27T20:12:43.000Z,288.15
2022-07-27T20:14:49.000Z,287.96
2022-07-27T20:16:16.000Z,288.09
2022-07-27T20:18:22.000Z,288.34
2022-07-27T20:19:48.000Z,288.4
2022-07-27T20:21:55.000Z,287.96
2022-07-27T20:23:21.000Z,287.77
2022-07-27T20:25:27.000Z,287.9
2022-07-27T20:26:54.000Z,288.09
2022-07-27T20:29:00.000Z,288.02
2022-07-27T20:31:51.000Z,287.52
2022-07-27T20:33:20.000Z,287.34
2022-07-27T20:35:26.000Z,287.4
2022-07-27T20:37:02.000Z,287.4
2022-07-27T20:39:08.000Z,287.34
2022-07-27T20:40:41.000Z,287.15
2022-07-27T20:42:47.000Z,287.34
2022-07-27T20:44:14.000Z,287.4
2022-07-27T20:46:20.000Z,287.46
2022-07-27T20:47:47.000Z,287.27
2022-07-27T20:49:53.000Z,287.09
2022-07-27T20:51:19.000Z,287.09
2022-07-27T20:53:26.000Z,287.27
2022-07-27T20:54:52.000Z,287.34
2022-07-27T20:56:59.000Z,287.27
2022-07-27T20:58:25.000Z,287.27
2022-07-27T21:00:31.000Z,287.09
2022-07-27T21:01:58.000Z,287.15
2022-07-27T21:04:04.000Z,287.4
2022-07-27T21:05:30.000Z,287.34
2022-07-27T21:07:37.000Z,287.02
2022-07-27T21:10:28.000Z,286.96
2022-07-27T21:11:54.000Z,286.71
2022-07-27T21:14:00.000Z,286.52
2022-07-27T21:15:27.000Z,286.46
2022-07-27T21:17:38.000Z,286.4
2022-07-27T21:19:04.000Z,286.27
2022-07-27T21:21:10.000Z,286.34
2022-07-27T21:22:37.000Z,286.52
2022-07-27T21:24:43.000Z,286.59
2022-07-27T21:26:12.000Z,286.52
2022-07-27T21:28:22.000Z,286.27
2022-07-27T21:29:49.000Z,286.27
2022-07-27T21:31:55.000Z,286.15
2022-07-27T21:33:22.000Z,286.27
2022-07-27T21:35:28.000Z,286.02
2022-07-27T21:36:55.000Z,286.02
2022-07-27T21:39:01.000Z,286.02
2022-07-27T21:40:27.000Z,286.15
2022-07-27T21:42:33.000Z,286.27
2022-07-27T21:44:00.000Z,286.09
2022-07-27T21:46:06.000Z,285.9
2022-07-27T21:48:57.000Z,285.71
2022-07-27T21:50:24.000Z,285.84
2022-07-27T21:52:30.000Z,285.77
2022-07-27T21:53:56.000Z,285.77
2022-07-27T21:56:02.000Z,285.9
2022-07-27T21:57:29.000Z,286.02
2022-07-27T21:59:35.000Z,285.84
2022-07-27T22:01:01.000Z,285.65
2022-07-27T22:03:08.000Z,285.52
2022-07-27T22:04:34.000Z,285.52
2022-07-27T22:06:40.000Z,285.59
2022-07-27T22:08:07.000Z,285.59
2022-07-27T22:10:13.000Z,285.77
2022-07-27T22:11:39.000Z,285.84
2022-07-27T22:13:46.000Z,285.4
2022-07-27T22:15:12.000Z,285.21
2022-07-27T22:17:18.000Z,285.09
2022-07-27T22:18:45.000Z,285.15
2022-07-27T22:20:51.000Z,285.09
2022-07-27T22:22:17.000Z,285.09
2022-07-27T22:24:23.000Z,285.09
2022-07-27T22:27:15.000Z,285.21
2022-07-27T22:28:41.000Z,285.27
2022-07-27T22:30:47.000Z,285.09
2022-07-27T22:32:46.000Z,285.02
2022-07-27T22:34:52.000Z,285.09
2022-07-27T22:36:19.000Z,284.96
2022-07-27T22:38:25.000Z,284.96
2022-07-27T22:39:52.000Z,285.02
2022-07-27T22:41:58.000Z,284.96
2022-07-27T22:43:25.000Z,285.15
2022-07-27T22:45:31.000Z,285.02
2022-07-27T22:46:58.000Z,285.02
2022-07-27T22:49:04.000Z,284.77
2022-07-27T22:50:31.000Z,284.77
2022-07-27T22:52:37.000Z,284.96
2022-07-27T22:54:04.000Z,285.02
2022-07-27T22:56:10.000Z,284.96
2022-07-27T22:57:36.000Z,285.02
2022-07-27T22:59:42.000Z,285.09
2022-07-27T23:01:09.000Z,285.02
2022-07-27T23:03:50.000Z,285.09
2022-07-27T23:06:42.000Z,284.77
2022-07-27T23:08:08.000Z,284.84
2022-07-27T23:10:14.000Z,284.59
2022-07-27T23:11:41.000Z,284.65